sensor_id;sensor_type;location;lat;lon;timestamp;P1;durP1;ratioP1;P2;durP2;ratioP2
77214;SDS011;66210;53.282;9.864;2023-08-30T00:01:11;1.73;;;1.50;;
77214;SDS011;66210;53.282;9.864;2023-08-30T00:03:38;2.25;;;1.55;;
77214;SDS011;66210;53.282;9.864;2023-08-30T00:06:05;2.00;;;1.63;;
77214;SDS011;66210;53.282;9.864;2023-08-30T00:08:33;1.50;;;1.40;;
77214;SDS011;66210;53.282;9.864;2023-08-30T00:11:00;2.55;;;1.50;;
77214;SDS011;66210;53.282;9.864;2023-08-30T00:13:31;1.90;;;1.60;;
77214;SDS011;66210;53.282;9.864;2023-08-30T00:15:59;4.85;;;1.50;;
77214;SDS011;66210;53.282;9.864;2023-08-30T00:18:27;5.45;;;1.40;;
77214;SDS011;66210;53.282;9.864;2023-08-30T00:20:54;3.17;;;1.70;;
77214;SDS011;66210;53.282;9.864;2023-08-30T00:23:21;2.28;;;1.60;;
77214;SDS011;66210;53.282;9.864;2023-08-30T00:25:48;1.70;;;1.60;;
77214;SDS011;66210;53.282;9.864;2023-08-30T00:28:15;1.67;;;1.42;;
77214;SDS011;66210;53.282;9.864;2023-08-30T00:30:41;2.28;;;1.60;;
77214;SDS011;66210;53.282;9.864;2023-08-30T00:33:08;1.77;;;1.50;;
77214;SDS011;66210;53.282;9.864;2023-08-30T00:35:35;3.20;;;1.65;;
77214;SDS011;66210;53.282;9.864;2023-08-30T00:38:02;2.38;;;1.60;;
77214;SDS011;66210;53.282;9.864;2023-08-30T00:40:37;1.67;;;1.42;;
77214;SDS011;66210;53.282;9.864;2023-08-30T00:43:04;6.35;;;2.30;;
77214;SDS011;66210;53.282;9.864;2023-08-30T00:45:31;8.55;;;1.70;;
77214;SDS011;66210;53.282;9.864;2023-08-30T00:47:59;2.08;;;1.65;;
77214;SDS011;66210;53.282;9.864;2023-08-30T00:50:26;2.42;;;1.48;;
77214;SDS011;66210;53.282;9.864;2023-08-30T00:52:53;1.67;;;1.58;;
77214;SDS011;66210;53.282;9.864;2023-08-30T00:55:20;1.90;;;1.40;;
77214;SDS011;66210;53.282;9.864;2023-08-30T00:57:46;1.50;;;1.40;;
77214;SDS011;66210;53.282;9.864;2023-08-30T01:00:14;2.22;;;1.60;;
77214;SDS011;66210;53.282;9.864;2023-08-30T01:02:41;1.75;;;1.45;;
77214;SDS011;66210;53.282;9.864;2023-08-30T01:05:08;2.00;;;1.40;;
77214;SDS011;66210;53.282;9.864;2023-08-30T01:07:36;2.05;;;1.40;;
77214;SDS011;66210;53.282;9.864;2023-08-30T01:10:03;2.55;;;1.58;;
77214;SDS011;66210;53.282;9.864;2023-08-30T01:12:33;1.65;;;1.40;;
77214;SDS011;66210;53.282;9.864;2023-08-30T01:17:36;3.47;;;1.30;;
77214;SDS011;66210;53.282;9.864;2023-08-30T01:20:06;1.55;;;1.40;;
77214;SDS011;66210;53.282;9.864;2023-08-30T01:28:01;1.50;;;1.40;;
77214;SDS011;66210;53.282;9.864;2023-08-30T01:30:32;2.78;;;1.40;;
77214;SDS011;66210;53.282;9.864;2023-08-30T01:33:00;3.47;;;1.60;;
77214;SDS011;66210;53.282;9.864;2023-08-30T01:35:29;1.73;;;1.58;;
77214;SDS011;66210;53.282;9.864;2023-08-30T01:37:59;1.80;;;1.40;;
77214;SDS011;66210;53.282;9.864;2023-08-30T01:40:28;2.13;;;1.60;;
77214;SDS011;66210;53.282;9.864;2023-08-30T01:42:59;3.17;;;1.35;;
77214;SDS011;66210;53.282;9.864;2023-08-30T01:45:27;4.80;;;1.55;;
77214;SDS011;66210;53.282;9.864;2023-08-30T01:47:55;1.60;;;1.42;;
77214;SDS011;66210;53.282;9.864;2023-08-30T01:50:23;1.60;;;1.27;;
77214;SDS011;66210;53.282;9.864;2023-08-30T01:52:51;1.85;;;1.60;;
77214;SDS011;66210;53.282;9.864;2023-08-30T01:55:18;1.50;;;1.40;;
77214;SDS011;66210;53.282;9.864;2023-08-30T02:00:14;4.75;;;1.60;;
77214;SDS011;66210;53.282;9.864;2023-08-30T02:02:41;2.67;;;1.40;;
77214;SDS011;66210;53.282;9.864;2023-08-30T02:05:07;5.20;;;1.23;;
77214;SDS011;66210;53.282;9.864;2023-08-30T02:07:38;1.85;;;1.50;;
77214;SDS011;66210;53.282;9.864;2023-08-30T02:10:10;3.03;;;1.77;;
77214;SDS011;66210;53.282;9.864;2023-08-30T02:12:43;2.13;;;1.67;;
77214;SDS011;66210;53.282;9.864;2023-08-30T02:15:14;2.80;;;1.60;;
77214;SDS011;66210;53.282;9.864;2023-08-30T02:17:44;1.88;;;1.42;;
77214;SDS011;66210;53.282;9.864;2023-08-30T02:20:11;1.75;;;1.48;;
77214;SDS011;66210;53.282;9.864;2023-08-30T02:22:38;3.85;;;1.50;;
77214;SDS011;66210;53.282;9.864;2023-08-30T02:25:05;2.33;;;1.60;;
77214;SDS011;66210;53.282;9.864;2023-08-30T02:27:32;4.30;;;1.58;;
77214;SDS011;66210;53.282;9.864;2023-08-30T02:30:00;2.58;;;1.73;;
77214;SDS011;66210;53.282;9.864;2023-08-30T02:32:27;1.45;;;1.33;;
77214;SDS011;66210;53.282;9.864;2023-08-30T02:34:55;2.85;;;1.60;;
77214;SDS011;66210;53.282;9.864;2023-08-30T02:37:22;1.80;;;1.58;;
77214;SDS011;66210;53.282;9.864;2023-08-30T02:39:49;3.67;;;1.67;;
77214;SDS011;66210;53.282;9.864;2023-08-30T02:42:16;1.80;;;1.50;;
77214;SDS011;66210;53.282;9.864;2023-08-30T02:44:43;3.15;;;1.40;;
77214;SDS011;66210;53.282;9.864;2023-08-30T02:47:10;4.15;;;1.50;;
77214;SDS011;66210;53.282;9.864;2023-08-30T02:49:36;2.30;;;1.42;;
77214;SDS011;66210;53.282;9.864;2023-08-30T02:52:03;1.80;;;1.60;;
77214;SDS011;66210;53.282;9.864;2023-08-30T02:54:30;3.22;;;1.60;;
77214;SDS011;66210;53.282;9.864;2023-08-30T02:56:57;2.08;;;1.60;;
77214;SDS011;66210;53.282;9.864;2023-08-30T02:59:24;5.82;;;1.90;;
77214;SDS011;66210;53.282;9.864;2023-08-30T03:01:50;2.47;;;1.80;;
77214;SDS011;66210;53.282;9.864;2023-08-30T03:04:17;2.65;;;2.00;;
77214;SDS011;66210;53.282;9.864;2023-08-30T03:06:44;5.13;;;1.90;;
77214;SDS011;66210;53.282;9.864;2023-08-30T03:09:10;2.20;;;1.60;;
77214;SDS011;66210;53.282;9.864;2023-08-30T03:11:38;3.53;;;1.70;;
77214;SDS011;66210;53.282;9.864;2023-08-30T03:14:04;3.40;;;1.73;;
77214;SDS011;66210;53.282;9.864;2023-08-30T03:16:31;3.67;;;1.70;;
77214;SDS011;66210;53.282;9.864;2023-08-30T03:18:58;1.98;;;1.60;;
77214;SDS011;66210;53.282;9.864;2023-08-30T03:21:25;1.70;;;1.60;;
77214;SDS011;66210;53.282;9.864;2023-08-30T03:23:52;6.65;;;1.90;;
77214;SDS011;66210;53.282;9.864;2023-08-30T03:26:18;2.30;;;1.65;;
77214;SDS011;66210;53.282;9.864;2023-08-30T03:28:45;3.88;;;1.98;;
77214;SDS011;66210;53.282;9.864;2023-08-30T03:31:12;1.77;;;1.50;;
77214;SDS011;66210;53.282;9.864;2023-08-30T03:33:40;2.85;;;1.58;;
77214;SDS011;66210;53.282;9.864;2023-08-30T03:36:11;2.50;;;1.52;;
77214;SDS011;66210;53.282;9.864;2023-08-30T03:38:38;2.97;;;1.83;;
77214;SDS011;66210;53.282;9.864;2023-08-30T03:41:06;2.13;;;1.70;;
77214;SDS011;66210;53.282;9.864;2023-08-30T03:43:33;4.30;;;1.88;;
77214;SDS011;66210;53.282;9.864;2023-08-30T03:46:00;5.53;;;1.90;;
77214;SDS011;66210;53.282;9.864;2023-08-30T03:48:27;3.08;;;1.70;;
77214;SDS011;66210;53.282;9.864;2023-08-30T03:50:54;4.63;;;1.98;;
77214;SDS011;66210;53.282;9.864;2023-08-30T03:53:21;2.38;;;1.80;;
77214;SDS011;66210;53.282;9.864;2023-08-30T03:55:49;4.07;;;2.03;;
77214;SDS011;66210;53.282;9.864;2023-08-30T03:58:17;1.88;;;1.65;;
77214;SDS011;66210;53.282;9.864;2023-08-30T04:00:45;2.38;;;1.88;;
77214;SDS011;66210;53.282;9.864;2023-08-30T04:03:13;5.97;;;1.67;;
77214;SDS011;66210;53.282;9.864;2023-08-30T04:05:41;4.07;;;1.95;;
77214;SDS011;66210;53.282;9.864;2023-08-30T04:08:08;2.28;;;1.80;;
77214;SDS011;66210;53.282;9.864;2023-08-30T04:10:36;2.33;;;1.70;;
77214;SDS011;66210;53.282;9.864;2023-08-30T04:13:04;7.53;;;2.20;;
77214;SDS011;66210;53.282;9.864;2023-08-30T04:15:33;3.40;;;2.20;;
77214;SDS011;66210;53.282;9.864;2023-08-30T04:18:01;3.10;;;2.03;;
77214;SDS011;66210;53.282;9.864;2023-08-30T04:20:29;2.25;;;1.85;;
77214;SDS011;66210;53.282;9.864;2023-08-30T04:22:57;2.53;;;1.70;;
77214;SDS011;66210;53.282;9.864;2023-08-30T04:25:24;3.10;;;1.50;;
77214;SDS011;66210;53.282;9.864;2023-08-30T04:27:51;4.03;;;2.10;;
77214;SDS011;66210;53.282;9.864;2023-08-30T04:30:18;3.83;;;2.13;;
77214;SDS011;66210;53.282;9.864;2023-08-30T04:32:45;1.77;;;1.67;;
77214;SDS011;66210;53.282;9.864;2023-08-30T04:35:12;1.63;;;1.52;;
77214;SDS011;66210;53.282;9.864;2023-08-30T04:37:39;2.35;;;1.80;;
77214;SDS011;66210;53.282;9.864;2023-08-30T04:40:06;2.75;;;1.75;;
77214;SDS011;66210;53.282;9.864;2023-08-30T04:42:35;2.35;;;1.70;;
77214;SDS011;66210;53.282;9.864;2023-08-30T04:45:03;1.90;;;1.70;;
77214;SDS011;66210;53.282;9.864;2023-08-30T04:47:30;2.53;;;1.70;;
77214;SDS011;66210;53.282;9.864;2023-08-30T04:49:58;4.47;;;1.77;;
77214;SDS011;66210;53.282;9.864;2023-08-30T04:52:25;1.52;;;1.40;;
77214;SDS011;66210;53.282;9.864;2023-08-30T04:54:52;1.85;;;1.52;;
77214;SDS011;66210;53.282;9.864;2023-08-30T04:57:19;2.28;;;1.60;;
77214;SDS011;66210;53.282;9.864;2023-08-30T04:59:46;2.33;;;1.40;;
77214;SDS011;66210;53.282;9.864;2023-08-30T05:02:13;3.90;;;1.70;;
77214;SDS011;66210;53.282;9.864;2023-08-30T05:04:40;4.90;;;1.70;;
77214;SDS011;66210;53.282;9.864;2023-08-30T05:07:07;2.38;;;2.08;;
77214;SDS011;66210;53.282;9.864;2023-08-30T05:09:33;2.67;;;1.55;;
77214;SDS011;66210;53.282;9.864;2023-08-30T05:12:01;3.97;;;1.90;;
77214;SDS011;66210;53.282;9.864;2023-08-30T05:14:28;4.25;;;1.80;;
77214;SDS011;66210;53.282;9.864;2023-08-30T05:16:54;3.20;;;1.90;;
77214;SDS011;66210;53.282;9.864;2023-08-30T05:19:21;2.97;;;2.15;;
77214;SDS011;66210;53.282;9.864;2023-08-30T05:21:48;2.38;;;1.45;;
77214;SDS011;66210;53.282;9.864;2023-08-30T05:24:18;3.63;;;2.08;;
77214;SDS011;66210;53.282;9.864;2023-08-30T05:26:45;2.63;;;1.92;;
77214;SDS011;66210;53.282;9.864;2023-08-30T05:29:13;3.88;;;2.00;;
77214;SDS011;66210;53.282;9.864;2023-08-30T05:31:41;2.40;;;1.85;;
77214;SDS011;66210;53.282;9.864;2023-08-30T05:34:08;4.30;;;1.90;;
77214;SDS011;66210;53.282;9.864;2023-08-30T05:36:34;2.70;;;1.90;;
77214;SDS011;66210;53.282;9.864;2023-08-30T05:39:01;2.92;;;2.20;;
77214;SDS011;66210;53.282;9.864;2023-08-30T05:41:29;3.60;;;2.42;;
77214;SDS011;66210;53.282;9.864;2023-08-30T05:43:56;3.58;;;2.10;;
77214;SDS011;66210;53.282;9.864;2023-08-30T05:46:23;4.80;;;2.00;;
77214;SDS011;66210;53.282;9.864;2023-08-30T05:48:50;4.25;;;2.30;;
77214;SDS011;66210;53.282;9.864;2023-08-30T05:51:17;3.28;;;2.58;;
77214;SDS011;66210;53.282;9.864;2023-08-30T05:53:43;4.13;;;2.60;;
77214;SDS011;66210;53.282;9.864;2023-08-30T05:56:10;4.70;;;3.38;;
77214;SDS011;66210;53.282;9.864;2023-08-30T05:58:37;4.43;;;3.30;;
77214;SDS011;66210;53.282;9.864;2023-08-30T06:01:04;7.30;;;3.33;;
77214;SDS011;66210;53.282;9.864;2023-08-30T06:03:33;4.38;;;3.50;;
77214;SDS011;66210;53.282;9.864;2023-08-30T06:05:59;7.00;;;4.03;;
77214;SDS011;66210;53.282;9.864;2023-08-30T06:08:26;6.57;;;4.35;;
77214;SDS011;66210;53.282;9.864;2023-08-30T06:10:53;5.25;;;4.40;;
77214;SDS011;66210;53.282;9.864;2023-08-30T06:13:20;8.57;;;4.28;;
77214;SDS011;66210;53.282;9.864;2023-08-30T06:15:50;5.88;;;4.55;;
77214;SDS011;66210;53.282;9.864;2023-08-30T06:18:17;6.15;;;4.25;;
77214;SDS011;66210;53.282;9.864;2023-08-30T06:20:45;8.07;;;4.10;;
77214;SDS011;66210;53.282;9.864;2023-08-30T06:23:13;5.78;;;4.15;;
77214;SDS011;66210;53.282;9.864;2023-08-30T06:25:40;8.35;;;4.18;;
77214;SDS011;66210;53.282;9.864;2023-08-30T06:28:07;6.43;;;3.78;;
77214;SDS011;66210;53.282;9.864;2023-08-30T06:30:35;5.43;;;3.83;;
77214;SDS011;66210;53.282;9.864;2023-08-30T06:33:02;7.13;;;4.30;;
77214;SDS011;66210;53.282;9.864;2023-08-30T06:35:29;9.15;;;4.43;;
77214;SDS011;66210;53.282;9.864;2023-08-30T06:37:56;9.57;;;4.63;;
77214;SDS011;66210;53.282;9.864;2023-08-30T06:40:23;11.75;;;5.20;;
77214;SDS011;66210;53.282;9.864;2023-08-30T06:42:50;8.00;;;5.30;;
77214;SDS011;66210;53.282;9.864;2023-08-30T06:45:16;7.90;;;5.60;;
77214;SDS011;66210;53.282;9.864;2023-08-30T06:47:43;9.35;;;5.90;;
77214;SDS011;66210;53.282;9.864;2023-08-30T06:50:10;10.82;;;5.93;;
77214;SDS011;66210;53.282;9.864;2023-08-30T06:52:37;12.27;;;7.00;;
77214;SDS011;66210;53.282;9.864;2023-08-30T06:55:04;11.25;;;6.95;;
77214;SDS011;66210;53.282;9.864;2023-08-30T06:57:31;10.00;;;6.20;;
77214;SDS011;66210;53.282;9.864;2023-08-30T06:59:58;7.00;;;5.72;;
77214;SDS011;66210;53.282;9.864;2023-08-30T07:02:25;10.07;;;6.25;;
77214;SDS011;66210;53.282;9.864;2023-08-30T07:04:56;8.25;;;6.28;;
77214;SDS011;66210;53.282;9.864;2023-08-30T07:07:24;11.43;;;7.60;;
77214;SDS011;66210;53.282;9.864;2023-08-30T07:09:51;14.88;;;7.32;;
77214;SDS011;66210;53.282;9.864;2023-08-30T07:12:18;7.72;;;5.10;;
77214;SDS011;66210;53.282;9.864;2023-08-30T07:14:44;10.90;;;7.05;;
77214;SDS011;66210;53.282;9.864;2023-08-30T07:17:11;8.05;;;5.80;;
77214;SDS011;66210;53.282;9.864;2023-08-30T07:19:38;7.97;;;6.32;;
77214;SDS011;66210;53.282;9.864;2023-08-30T07:22:05;7.55;;;6.47;;
77214;SDS011;66210;53.282;9.864;2023-08-30T07:24:32;9.65;;;6.45;;
77214;SDS011;66210;53.282;9.864;2023-08-30T07:26:59;9.52;;;6.72;;
77214;SDS011;66210;53.282;9.864;2023-08-30T07:29:26;9.73;;;7.65;;
77214;SDS011;66210;53.282;9.864;2023-08-30T07:31:53;14.20;;;7.97;;
77214;SDS011;66210;53.282;9.864;2023-08-30T07:34:21;7.95;;;6.80;;
77214;SDS011;66210;53.282;9.864;2023-08-30T07:36:47;12.38;;;8.25;;
77214;SDS011;66210;53.282;9.864;2023-08-30T07:39:14;8.68;;;7.20;;
77214;SDS011;66210;53.282;9.864;2023-08-30T07:41:41;13.35;;;7.13;;
77214;SDS011;66210;53.282;9.864;2023-08-30T07:44:08;11.75;;;6.78;;
77214;SDS011;66210;53.282;9.864;2023-08-30T07:46:35;9.48;;;6.93;;
77214;SDS011;66210;53.282;9.864;2023-08-30T07:49:02;11.50;;;8.48;;
77214;SDS011;66210;53.282;9.864;2023-08-30T07:51:29;10.65;;;8.57;;
77214;SDS011;66210;53.282;9.864;2023-08-30T07:53:56;13.23;;;8.65;;
77214;SDS011;66210;53.282;9.864;2023-08-30T07:56:23;10.45;;;6.10;;
77214;SDS011;66210;53.282;9.864;2023-08-30T07:58:49;11.43;;;7.25;;
77214;SDS011;66210;53.282;9.864;2023-08-30T08:01:18;12.43;;;8.48;;
77214;SDS011;66210;53.282;9.864;2023-08-30T08:03:44;12.25;;;8.20;;
77214;SDS011;66210;53.282;9.864;2023-08-30T08:06:31;13.07;;;8.80;;
77214;SDS011;66210;53.282;9.864;2023-08-30T08:08:57;14.27;;;8.77;;
77214;SDS011;66210;53.282;9.864;2023-08-30T08:11:25;12.98;;;8.80;;
77214;SDS011;66210;53.282;9.864;2023-08-30T08:13:52;14.00;;;8.32;;
77214;SDS011;66210;53.282;9.864;2023-08-30T08:16:19;12.32;;;8.18;;
77214;SDS011;66210;53.282;9.864;2023-08-30T08:18:46;11.18;;;7.40;;
77214;SDS011;66210;53.282;9.864;2023-08-30T08:21:15;11.88;;;6.80;;
77214;SDS011;66210;53.282;9.864;2023-08-30T08:23:42;13.77;;;7.50;;
77214;SDS011;66210;53.282;9.864;2023-08-30T08:26:09;10.80;;;7.10;;
77214;SDS011;66210;53.282;9.864;2023-08-30T08:28:36;8.77;;;6.35;;
77214;SDS011;66210;53.282;9.864;2023-08-30T08:31:02;11.02;;;6.95;;
77214;SDS011;66210;53.282;9.864;2023-08-30T08:33:29;8.70;;;5.53;;
77214;SDS011;66210;53.282;9.864;2023-08-30T08:35:56;9.35;;;6.13;;
77214;SDS011;66210;53.282;9.864;2023-08-30T08:38:23;8.60;;;5.45;;
77214;SDS011;66210;53.282;9.864;2023-08-30T08:40:51;13.32;;;6.78;;
77214;SDS011;66210;53.282;9.864;2023-08-30T08:43:29;10.23;;;6.57;;
77214;SDS011;66210;53.282;9.864;2023-08-30T08:46:04;8.55;;;6.90;;
77214;SDS011;66210;53.282;9.864;2023-08-30T08:48:33;7.72;;;5.90;;
77214;SDS011;66210;53.282;9.864;2023-08-30T08:51:05;9.63;;;6.95;;
77214;SDS011;66210;53.282;9.864;2023-08-30T08:53:32;9.38;;;5.30;;
77214;SDS011;66210;53.282;9.864;2023-08-30T08:55:59;9.40;;;5.72;;
77214;SDS011;66210;53.282;9.864;2023-08-30T08:58:28;14.07;;;7.10;;
77214;SDS011;66210;53.282;9.864;2023-08-30T09:00:56;11.48;;;6.43;;
77214;SDS011;66210;53.282;9.864;2023-08-30T09:03:22;10.95;;;5.50;;
77214;SDS011;66210;53.282;9.864;2023-08-30T09:05:49;7.25;;;4.47;;
77214;SDS011;66210;53.282;9.864;2023-08-30T09:08:18;9.00;;;5.20;;
77214;SDS011;66210;53.282;9.864;2023-08-30T09:10:46;7.88;;;4.60;;
77214;SDS011;66210;53.282;9.864;2023-08-30T09:13:16;11.20;;;6.47;;
77214;SDS011;66210;53.282;9.864;2023-08-30T09:15:43;10.73;;;5.82;;
77214;SDS011;66210;53.282;9.864;2023-08-30T09:18:16;7.32;;;4.88;;
77214;SDS011;66210;53.282;9.864;2023-08-30T09:20:44;7.78;;;4.90;;
77214;SDS011;66210;53.282;9.864;2023-08-30T09:23:20;9.85;;;4.75;;
77214;SDS011;66210;53.282;9.864;2023-08-30T09:25:47;10.07;;;5.05;;
77214;SDS011;66210;53.282;9.864;2023-08-30T09:28:20;13.27;;;5.57;;
77214;SDS011;66210;53.282;9.864;2023-08-30T09:30:51;10.27;;;5.10;;
77214;SDS011;66210;53.282;9.864;2023-08-30T09:33:22;6.57;;;4.32;;
77214;SDS011;66210;53.282;9.864;2023-08-30T09:35:50;6.30;;;4.22;;
77214;SDS011;66210;53.282;9.864;2023-08-30T09:38:20;9.20;;;4.10;;
77214;SDS011;66210;53.282;9.864;2023-08-30T09:40:47;6.07;;;3.30;;
77214;SDS011;66210;53.282;9.864;2023-08-30T09:43:17;9.20;;;3.78;;
77214;SDS011;66210;53.282;9.864;2023-08-30T09:45:46;10.00;;;4.22;;
77214;SDS011;66210;53.282;9.864;2023-08-30T09:48:13;5.57;;;3.42;;
77214;SDS011;66210;53.282;9.864;2023-08-30T09:50:40;10.85;;;5.30;;
77214;SDS011;66210;53.282;9.864;2023-08-30T09:53:10;6.38;;;4.18;;
77214;SDS011;66210;53.282;9.864;2023-08-30T09:55:40;11.70;;;4.22;;
77214;SDS011;66210;53.282;9.864;2023-08-30T10:00:36;8.55;;;3.72;;
77214;SDS011;66210;53.282;9.864;2023-08-30T10:03:04;5.38;;;3.53;;
77214;SDS011;66210;53.282;9.864;2023-08-30T10:05:34;6.05;;;3.40;;
77214;SDS011;66210;53.282;9.864;2023-08-30T10:08:02;6.45;;;4.00;;
77214;SDS011;66210;53.282;9.864;2023-08-30T10:10:30;4.70;;;3.20;;
77214;SDS011;66210;53.282;9.864;2023-08-30T10:12:57;6.07;;;3.85;;
77214;SDS011;66210;53.282;9.864;2023-08-30T10:15:36;7.13;;;3.35;;
77214;SDS011;66210;53.282;9.864;2023-08-30T10:18:09;7.85;;;4.15;;
77214;SDS011;66210;53.282;9.864;2023-08-30T10:20:42;5.97;;;3.25;;
77214;SDS011;66210;53.282;9.864;2023-08-30T10:23:12;5.22;;;3.20;;
77214;SDS011;66210;53.282;9.864;2023-08-30T10:25:42;7.97;;;3.17;;
77214;SDS011;66210;53.282;9.864;2023-08-30T10:28:10;5.75;;;3.20;;
77214;SDS011;66210;53.282;9.864;2023-08-30T10:30:38;6.78;;;3.63;;
77214;SDS011;66210;53.282;9.864;2023-08-30T10:33:12;5.22;;;3.00;;
77214;SDS011;66210;53.282;9.864;2023-08-30T10:35:49;7.25;;;3.25;;
77214;SDS011;66210;53.282;9.864;2023-08-30T10:38:24;6.63;;;3.28;;
77214;SDS011;66210;53.282;9.864;2023-08-30T10:40:55;6.47;;;3.25;;
77214;SDS011;66210;53.282;9.864;2023-08-30T10:43:28;8.50;;;3.78;;
77214;SDS011;66210;53.282;9.864;2023-08-30T10:46:00;10.68;;;3.80;;
77214;SDS011;66210;53.282;9.864;2023-08-30T10:48:38;5.90;;;3.65;;
77214;SDS011;66210;53.282;9.864;2023-08-30T10:51:19;13.48;;;4.00;;
77214;SDS011;66210;53.282;9.864;2023-08-30T10:53:55;6.38;;;4.20;;
77214;SDS011;66210;53.282;9.864;2023-08-30T10:56:29;7.25;;;3.40;;
77214;SDS011;66210;53.282;9.864;2023-08-30T10:58:57;8.13;;;3.80;;
77214;SDS011;66210;53.282;9.864;2023-08-30T11:01:25;6.47;;;4.00;;
77214;SDS011;66210;53.282;9.864;2023-08-30T11:03:53;9.75;;;3.80;;
77214;SDS011;66210;53.282;9.864;2023-08-30T11:06:42;8.82;;;4.15;;
77214;SDS011;66210;53.282;9.864;2023-08-30T11:09:14;10.13;;;4.80;;
77214;SDS011;66210;53.282;9.864;2023-08-30T11:11:46;7.90;;;3.88;;
77214;SDS011;66210;53.282;9.864;2023-08-30T11:14:13;9.05;;;3.63;;
77214;SDS011;66210;53.282;9.864;2023-08-30T11:16:41;9.55;;;3.72;;
77214;SDS011;66210;53.282;9.864;2023-08-30T11:19:08;7.47;;;3.38;;
77214;SDS011;66210;53.282;9.864;2023-08-30T11:21:37;5.57;;;3.20;;
77214;SDS011;66210;53.282;9.864;2023-08-30T11:24:06;8.95;;;4.43;;
77214;SDS011;66210;53.282;9.864;2023-08-30T11:26:33;5.20;;;3.42;;
77214;SDS011;66210;53.282;9.864;2023-08-30T11:29:09;6.68;;;3.95;;
77214;SDS011;66210;53.282;9.864;2023-08-30T11:31:37;11.30;;;4.25;;
77214;SDS011;66210;53.282;9.864;2023-08-30T11:34:03;9.20;;;3.55;;
77214;SDS011;66210;53.282;9.864;2023-08-30T11:36:31;6.40;;;3.05;;
77214;SDS011;66210;53.282;9.864;2023-08-30T11:38:58;6.32;;;3.42;;
77214;SDS011;66210;53.282;9.864;2023-08-30T11:41:25;7.47;;;3.55;;
77214;SDS011;66210;53.282;9.864;2023-08-30T11:43:53;8.50;;;3.78;;
77214;SDS011;66210;53.282;9.864;2023-08-30T11:46:21;5.38;;;3.42;;
77214;SDS011;66210;53.282;9.864;2023-08-30T11:48:48;11.13;;;3.40;;
77214;SDS011;66210;53.282;9.864;2023-08-30T11:51:18;6.50;;;3.85;;
77214;SDS011;66210;53.282;9.864;2023-08-30T11:53:45;7.93;;;4.28;;
77214;SDS011;66210;53.282;9.864;2023-08-30T11:56:13;6.70;;;4.20;;
77214;SDS011;66210;53.282;9.864;2023-08-30T11:58:40;6.28;;;3.85;;
77214;SDS011;66210;53.282;9.864;2023-08-30T12:01:07;10.07;;;4.07;;
77214;SDS011;66210;53.282;9.864;2023-08-30T12:03:34;6.20;;;3.72;;
77214;SDS011;66210;53.282;9.864;2023-08-30T12:06:01;8.82;;;3.28;;
77214;SDS011;66210;53.282;9.864;2023-08-30T12:08:29;6.25;;;3.63;;
77214;SDS011;66210;53.282;9.864;2023-08-30T12:10:57;6.30;;;3.67;;
77214;SDS011;66210;53.282;9.864;2023-08-30T12:13:26;7.00;;;3.55;;
77214;SDS011;66210;53.282;9.864;2023-08-30T12:15:54;7.45;;;3.60;;
77214;SDS011;66210;53.282;9.864;2023-08-30T12:18:23;9.00;;;3.20;;
77214;SDS011;66210;53.282;9.864;2023-08-30T12:20:58;4.85;;;3.45;;
77214;SDS011;66210;53.282;9.864;2023-08-30T12:23:26;5.85;;;3.17;;
77214;SDS011;66210;53.282;9.864;2023-08-30T12:25:59;4.10;;;2.95;;
77214;SDS011;66210;53.282;9.864;2023-08-30T12:28:37;6.78;;;3.20;;
77214;SDS011;66210;53.282;9.864;2023-08-30T12:31:04;8.13;;;2.92;;
77214;SDS011;66210;53.282;9.864;2023-08-30T12:33:32;5.20;;;2.80;;
77214;SDS011;66210;53.282;9.864;2023-08-30T12:36:00;5.90;;;3.20;;
77214;SDS011;66210;53.282;9.864;2023-08-30T12:38:27;7.35;;;2.80;;
77214;SDS011;66210;53.282;9.864;2023-08-30T12:40:54;7.85;;;3.05;;
77214;SDS011;66210;53.282;9.864;2023-08-30T12:43:22;6.68;;;3.42;;
77214;SDS011;66210;53.282;9.864;2023-08-30T12:45:49;6.53;;;2.83;;
77214;SDS011;66210;53.282;9.864;2023-08-30T12:48:17;9.95;;;3.00;;
77214;SDS011;66210;53.282;9.864;2023-08-30T12:50:45;7.80;;;4.07;;
77214;SDS011;66210;53.282;9.864;2023-08-30T12:53:13;5.15;;;2.90;;
77214;SDS011;66210;53.282;9.864;2023-08-30T12:55:43;7.68;;;2.95;;
77214;SDS011;66210;53.282;9.864;2023-08-30T12:58:10;8.15;;;3.08;;
77214;SDS011;66210;53.282;9.864;2023-08-30T13:00:38;4.47;;;2.75;;
77214;SDS011;66210;53.282;9.864;2023-08-30T13:03:05;4.20;;;2.78;;
77214;SDS011;66210;53.282;9.864;2023-08-30T13:05:32;6.82;;;3.63;;
77214;SDS011;66210;53.282;9.864;2023-08-30T13:08:00;5.43;;;2.92;;
77214;SDS011;66210;53.282;9.864;2023-08-30T13:10:27;5.25;;;3.13;;
77214;SDS011;66210;53.282;9.864;2023-08-30T13:12:53;6.25;;;3.38;;
77214;SDS011;66210;53.282;9.864;2023-08-30T13:15:20;6.05;;;2.85;;
77214;SDS011;66210;53.282;9.864;2023-08-30T13:17:47;5.68;;;3.00;;
77214;SDS011;66210;53.282;9.864;2023-08-30T13:20:14;5.32;;;3.30;;
77214;SDS011;66210;53.282;9.864;2023-08-30T13:22:41;6.45;;;3.05;;
77214;SDS011;66210;53.282;9.864;2023-08-30T13:25:09;10.35;;;3.20;;
77214;SDS011;66210;53.282;9.864;2023-08-30T13:27:35;7.47;;;3.13;;
77214;SDS011;66210;53.282;9.864;2023-08-30T13:30:02;6.47;;;2.95;;
77214;SDS011;66210;53.282;9.864;2023-08-30T13:32:29;5.40;;;2.95;;
77214;SDS011;66210;53.282;9.864;2023-08-30T13:34:56;5.75;;;2.85;;
77214;SDS011;66210;53.282;9.864;2023-08-30T13:37:23;4.03;;;2.50;;
77214;SDS011;66210;53.282;9.864;2023-08-30T13:39:50;5.97;;;3.22;;
77214;SDS011;66210;53.282;9.864;2023-08-30T13:42:19;11.63;;;3.38;;
77214;SDS011;66210;53.282;9.864;2023-08-30T13:44:45;6.60;;;3.17;;
77214;SDS011;66210;53.282;9.864;2023-08-30T13:47:12;6.57;;;2.95;;
77214;SDS011;66210;53.282;9.864;2023-08-30T13:49:39;5.50;;;3.17;;
77214;SDS011;66210;53.282;9.864;2023-08-30T13:52:06;6.15;;;3.58;;
77214;SDS011;66210;53.282;9.864;2023-08-30T13:54:32;4.95;;;3.05;;
77214;SDS011;66210;53.282;9.864;2023-08-30T13:56:59;8.10;;;3.25;;
77214;SDS011;66210;53.282;9.864;2023-08-30T13:59:26;4.45;;;2.63;;
77214;SDS011;66210;53.282;9.864;2023-08-30T14:01:54;5.55;;;3.42;;
77214;SDS011;66210;53.282;9.864;2023-08-30T14:04:25;7.68;;;3.13;;
77214;SDS011;66210;53.282;9.864;2023-08-30T14:06:52;4.35;;;2.92;;
77214;SDS011;66210;53.282;9.864;2023-08-30T14:09:18;3.95;;;2.78;;
77214;SDS011;66210;53.282;9.864;2023-08-30T14:11:45;6.43;;;3.10;;
77214;SDS011;66210;53.282;9.864;2023-08-30T14:14:12;5.28;;;3.00;;
77214;SDS011;66210;53.282;9.864;2023-08-30T14:16:38;5.40;;;3.13;;
77214;SDS011;66210;53.282;9.864;2023-08-30T14:19:05;5.22;;;2.75;;
77214;SDS011;66210;53.282;9.864;2023-08-30T14:21:32;6.10;;;2.97;;
77214;SDS011;66210;53.282;9.864;2023-08-30T14:23:59;7.97;;;2.92;;
77214;SDS011;66210;53.282;9.864;2023-08-30T14:26:26;7.35;;;2.70;;
77214;SDS011;66210;53.282;9.864;2023-08-30T14:28:54;4.65;;;2.78;;
77214;SDS011;66210;53.282;9.864;2023-08-30T14:31:21;7.43;;;2.97;;
77214;SDS011;66210;53.282;9.864;2023-08-30T14:33:48;5.28;;;2.92;;
77214;SDS011;66210;53.282;9.864;2023-08-30T14:36:15;8.10;;;2.92;;
77214;SDS011;66210;53.282;9.864;2023-08-30T14:38:42;5.72;;;3.00;;
77214;SDS011;66210;53.282;9.864;2023-08-30T14:41:09;3.63;;;2.40;;
77214;SDS011;66210;53.282;9.864;2023-08-30T14:43:36;4.25;;;2.90;;
77214;SDS011;66210;53.282;9.864;2023-08-30T14:46:04;4.65;;;2.92;;
77214;SDS011;66210;53.282;9.864;2023-08-30T14:51:06;7.70;;;2.80;;
77214;SDS011;66210;53.282;9.864;2023-08-30T14:53:34;3.67;;;2.75;;
77214;SDS011;66210;53.282;9.864;2023-08-30T14:56:01;4.25;;;2.60;;
77214;SDS011;66210;53.282;9.864;2023-08-30T14:58:33;3.38;;;2.67;;
77214;SDS011;66210;53.282;9.864;2023-08-30T15:01:01;4.03;;;2.60;;
77214;SDS011;66210;53.282;9.864;2023-08-30T15:03:28;4.95;;;2.88;;
77214;SDS011;66210;53.282;9.864;2023-08-30T15:05:55;4.50;;;2.47;;